Time;durP1;ratioP1;P1;durP2;ratioP2;P2;SDS_P1;SDS_P2;PMS_P1;PMS_P2;Temp;Humidity;BMP_temperature;BMP_pressure;BME280_temperature;BME280_humidity;BME280_pressure;Samples;Min_cycle;Max_cycle;Signal;HPM_P1;HPM_P2
2021/05/01 00:01:35;;;;;;;16.00;9.25;;;;;;;;;;4990222;28;20020;-59
2021/05/01 00:04:01;;;;;;;15.00;9.52;;;;;;;;;;4990261;28;20045;-59
2021/05/01 00:06:27;;;;;;;14.23;9.15;;;;;;;;;;4992292;28;20478;-59
2021/05/01 00:08:53;;;;;;;15.95;9.07;;;;;;;;;;4990695;28;20034;-60
2021/05/01 00:11:21;;;;;;;15.20;9.35;;;;;;;;;;4989296;28;20132;-60
2021/05/01 00:13:47;;;;;;;16.38;9.73;;;;;;;;;;4989788;28;20474;-60
2021/05/01 00:16:13;;;;;;;13.95;9.10;;;;;;;;;;4989766;28;20086;-59
2021/05/01 00:18:39;;;;;;;12.85;8.32;;;;;;;;;;4991485;28;20691;-60
2021/05/01 00:21:05;;;;;;;14.75;8.07;;;;;;;;;;4990668;28;20026;-60
2021/05/01 00:23:31;;;;;;;13.52;8.77;;;;;;;;;;4989159;28;20046;-59
2021/05/01 00:25:58;;;;;;;16.17;8.68;;;;;;;;;;4989508;28;20042;-59
2021/05/01 00:28:24;;;;;;;16.48;8.85;;;;;;;;;;4989840;28;20367;-59
2021/05/01 00:30:50;;;;;;;12.07;7.85;;;;;;;;;;4990342;28;20027;-59
2021/05/01 00:33:16;;;;;;;10.93;7.07;;;;;;;;;;4992250;28;20022;-60
2021/05/01 00:35:43;;;;;;;11.90;5.90;;;;;;;;;;4987991;28;20039;-59
2021/05/01 00:38:09;;;;;;;11.80;6.07;;;;;;;;;;4989012;28;20389;-59
2021/05/01 00:40:35;;;;;;;9.20;5.15;;;;;;;;;;4989637;28;20030;-59
2021/05/01 00:43:01;;;;;;;11.75;6.07;;;;;;;;;;4989590;28;20038;-59
2021/05/01 00:45:27;;;;;;;10.75;4.63;;;;;;;;;;4992044;28;20030;-59
2021/05/01 00:47:53;;;;;;;6.65;4.05;;;;;;;;;;4989761;28;20026;-59
2021/05/01 00:50:20;;;;;;;9.05;4.50;;;;;;;;;;4988405;28;20092;-60
2021/05/01 00:52:46;;;;;;;8.77;5.22;;;;;;;;;;4989166;28;20034;-59
2021/05/01 00:55:12;;;;;;;8.88;6.00;;;;;;;;;;4989494;28;20451;-59
2021/05/01 00:57:38;;;;;;;11.68;6.25;;;;;;;;;;4991167;28;20026;-59
2021/05/01 01:00:05;;;;;;;9.30;5.70;;;;;;;;;;4989865;28;20045;-59
2021/05/01 01:02:31;;;;;;;10.45;6.53;;;;;;;;;;4988954;28;20034;-59
2021/05/01 01:04:58;;;;;;;12.10;7.25;;;;;;;;;;4989112;28;20493;-59
2021/05/01 01:07:24;;;;;;;10.30;6.88;;;;;;;;;;4989091;28;20030;-59
2021/05/01 01:09:50;;;;;;;11.40;7.43;;;;;;;;;;4989699;28;20575;-59
2021/05/01 01:12:17;;;;;;;11.75;7.45;;;;;;;;;;4991818;28;20018;-59
2021/05/01 01:14:44;;;;;;;12.32;7.40;;;;;;;;;;4988637;28;20389;-59
2021/05/01 01:17:10;;;;;;;13.98;7.93;;;;;;;;;;4988904;28;20434;-59
2021/05/01 01:19:38;;;;;;;11.93;6.50;;;;;;;;;;4988723;28;20065;-59
2021/05/01 01:22:09;;;;;;;11.55;7.20;;;;;;;;;;4988719;28;20021;-59
2021/05/01 01:24:35;;;;;;;9.27;5.95;;;;;;;;;;4991036;28;20053;-59
2021/05/01 01:27:01;;;;;;;10.38;5.50;;;;;;;;;;4990215;28;20027;-59
2021/05/01 01:29:27;;;;;;;9.32;4.90;;;;;;;;;;4988596;28;20077;-60
2021/05/01 01:31:53;;;;;;;8.27;4.63;;;;;;;;;;4988446;28;20073;-59
2021/05/01 01:34:19;;;;;;;7.05;4.18;;;;;;;;;;4989001;28;20050;-59
2021/05/01 01:36:45;;;;;;;7.07;4.60;;;;;;;;;;4972303;28;20061;-59
2021/05/01 01:39:11;;;;;;;8.82;4.68;;;;;;;;;;4991088;28;20470;-59
2021/05/01 01:41:37;;;;;;;7.40;4.03;;;;;;;;;;4988323;28;20058;-59
2021/05/01 01:44:03;;;;;;;7.22;3.83;;;;;;;;;;4988715;28;20042;-59
2021/05/01 01:46:29;;;;;;;8.07;4.15;;;;;;;;;;4989788;28;20060;-59
2021/05/01 01:48:56;;;;;;;9.70;4.10;;;;;;;;;;4992700;28;20109;-59
2021/05/01 01:51:22;;;;;;;10.90;4.25;;;;;;;;;;4995362;28;20429;-58
2021/05/01 01:53:49;;;;;;;7.53;4.43;;;;;;;;;;4992526;28;20691;-59
2021/05/01 01:56:15;;;;;;;8.93;4.18;;;;;;;;;;4991984;28;20042;-59
2021/05/01 01:58:41;;;;;;;6.25;3.72;;;;;;;;;;4992288;28;20026;-59
2021/05/01 02:01:09;;;;;;;5.35;3.85;;;;;;;;;;4992170;28;20062;-58
2021/05/01 02:03:36;;;;;;;7.05;4.78;;;;;;;;;;4994661;28;20023;-59
2021/05/01 02:06:02;;;;;;;31.42;5.88;;;;;;;;;;4993375;28;20390;-59
2021/05/01 02:08:28;;;;;;;100.40;8.13;;;;;;;;;;4992054;28;20034;-59
2021/05/01 02:10:54;;;;;;;8.65;5.30;;;;;;;;;;4991110;28;20461;-59
2021/05/01 02:13:20;;;;;;;7.13;4.75;;;;;;;;;;4992145;28;20042;-59
2021/05/01 02:15:45;;;;;;;7.47;4.13;;;;;;;;;;4993144;28;20028;-59
2021/05/01 02:18:12;;;;;;;6.28;3.13;;;;;;;;;;4994386;28;20113;-59
2021/05/01 02:20:38;;;;;;;15.40;4.07;;;;;;;;;;4991639;28;20038;-59
2021/05/01 02:23:05;;;;;;;5.82;3.95;;;;;;;;;;4991267;28;20050;-58
2021/05/01 02:25:31;;;;;;;5.78;3.35;;;;;;;;;;4991868;28;20105;-59
2021/05/01 02:27:57;;;;;;;9.02;4.30;;;;;;;;;;4991641;28;20023;-59
2021/05/01 02:30:27;;;;;;;6.28;3.40;;;;;;;;;;4995143;28;20040;-59
2021/05/01 02:32:53;;;;;;;6.15;3.35;;;;;;;;;;4992392;28;20108;-58
2021/05/01 02:35:21;;;;;;;7.47;3.40;;;;;;;;;;4991334;28;20049;-59
2021/05/01 02:37:47;;;;;;;7.90;3.47;;;;;;;;;;4991637;28;20057;-59
2021/05/01 02:40:14;;;;;;;7.22;3.22;;;;;;;;;;4991733;28;20019;-60
2021/05/01 02:42:41;;;;;;;5.70;3.22;;;;;;;;;;4993552;28;20034;-58
2021/05/01 02:45:08;;;;;;;5.20;3.28;;;;;;;;;;4993096;28;20022;-59
2021/05/01 02:47:34;;;;;;;5.57;2.88;;;;;;;;;;4991703;28;20023;-58
2021/05/01 02:50:00;;;;;;;7.90;3.40;;;;;;;;;;4990768;28;20022;-59
2021/05/01 02:52:27;;;;;;;5.07;3.10;;;;;;;;;;4991443;28;20486;-59
2021/05/01 02:54:52;;;;;;;6.65;3.15;;;;;;;;;;4975857;28;20437;-59
2021/05/01 02:57:19;;;;;;;5.57;2.53;;;;;;;;;;4993665;28;20034;-59
2021/05/01 02:59:44;;;;;;;7.28;3.10;;;;;;;;;;4990744;28;20038;-58
2021/05/01 03:02:10;;;;;;;4.80;2.35;;;;;;;;;;4990823;28;20030;-59
2021/05/01 03:04:36;;;;;;;7.55;2.90;;;;;;;;;;4991206;28;20032;-59
2021/05/01 03:07:03;;;;;;;4.85;2.53;;;;;;;;;;4991312;28;20046;-61
2021/05/01 03:09:29;;;;;;;5.20;2.47;;;;;;;;;;4993440;28;20109;-61
2021/05/01 03:11:55;;;;;;;7.72;2.80;;;;;;;;;;4991820;28;20456;-61
2021/05/01 03:14:24;;;;;;;6.65;2.30;;;;;;;;;;4975819;28;20102;-61
2021/05/01 03:16:50;;;;;;;4.53;2.40;;;;;;;;;;4990731;28;20026;-61
2021/05/01 03:19:16;;;;;;;8.38;2.78;;;;;;;;;;4991226;28;20410;-61
2021/05/01 03:21:41;;;;;;;5.90;2.92;;;;;;;;;;4992394;28;20030;-61
2021/05/01 03:24:08;;;;;;;5.22;2.97;;;;;;;;;;4991887;28;20047;-61
2021/05/01 03:26:34;;;;;;;6.13;3.15;;;;;;;;;;4991017;28;20022;-61
2021/05/01 03:29:00;;;;;;;5.88;3.08;;;;;;;;;;4990348;28;20429;-61
2021/05/01 03:31:26;;;;;;;6.25;2.53;;;;;;;;;;4990653;28;20058;-61
2021/05/01 03:33:52;;;;;;;3.25;2.28;;;;;;;;;;4991505;28;20057;-61
2021/05/01 03:36:18;;;;;;;5.88;2.50;;;;;;;;;;4993700;28;20076;-61
2021/05/01 03:38:44;;;;;;;5.57;3.20;;;;;;;;;;4990306;28;20077;-61
2021/05/01 03:41:10;;;;;;;5.32;3.42;;;;;;;;;;4990356;28;20026;-61
2021/05/01 03:43:36;;;;;;;5.28;3.10;;;;;;;;;;4990378;28;20027;-61
2021/05/01 03:46:02;;;;;;;10.88;3.47;;;;;;;;;;4990190;28;20034;-61
2021/05/01 03:48:28;;;;;;;7.80;3.22;;;;;;;;;;4993054;28;20026;-61
2021/05/01 03:50:54;;;;;;;4.43;2.95;;;;;;;;;;4991067;28;20522;-61
2021/05/01 03:53:21;;;;;;;4.55;3.08;;;;;;;;;;4990477;28;20097;-61
2021/05/01 03:55:47;;;;;;;5.20;2.87;;;;;;;;;;4990340;28;20026;-61
2021/05/01 03:58:13;;;;;;;3.35;1.90;;;;;;;;;;4989726;28;20506;-60
2021/05/01 04:00:39;;;;;;;3.33;2.10;;;;;;;;;;4992281;28;20023;-61
2021/05/01 04:03:05;;;;;;;4.32;2.70;;;;;;;;;;4991532;28;20477;-61
2021/05/01 04:05:31;;;;;;;4.60;2.90;;;;;;;;;;4989932;28;20022;-61
2021/05/01 04:07:57;;;;;;;5.05;2.60;;;;;;;;;;4989861;28;20026;-61
2021/05/01 04:10:23;;;;;;;4.95;2.35;;;;;;;;;;4989648;28;20026;-61
2021/05/01 04:12:49;;;;;;;7.53;2.40;;;;;;;;;;4990115;28;20106;-61
2021/05/01 04:15:15;;;;;;;5.35;2.65;;;;;;;;;;4992688;28;20101;-61
2021/05/01 04:17:41;;;;;;;4.15;2.53;;;;;;;;;;4990077;28;20018;-61
2021/05/01 04:20:08;;;;;;;5.80;2.92;;;;;;;;;;4985721;28;20066;-61
2021/05/01 04:22:34;;;;;;;3.40;2.20;;;;;;;;;;4982267;28;20026;-60
2021/05/01 04:25:00;;;;;;;3.92;2.55;;;;;;;;;;4974302;28;20054;-61
2021/05/01 04:27:26;;;;;;;4.90;2.70;;;;;;;;;;4992663;28;20025;-60
2021/05/01 04:29:52;;;;;;;5.35;2.38;;;;;;;;;;4989943;28;20114;-61
2021/05/01 04:32:18;;;;;;;6.63;2.88;;;;;;;;;;4989201;28;20118;-61
2021/05/01 04:34:44;;;;;;;5.15;3.13;;;;;;;;;;4989207;28;20110;-61
2021/05/01 04:37:10;;;;;;;3.72;2.60;;;;;;;;;;4989704;28;20109;-61
2021/05/01 04:39:36;;;;;;;4.72;2.65;;;;;;;;;;4991533;28;20117;-62
2021/05/01 04:42:03;;;;;;;4.32;2.05;;;;;;;;;;4972870;28;20033;-61
2021/05/01 04:44:30;;;;;;;4.35;2.20;;;;;;;;;;4989143;28;20080;-61
2021/05/01 04:46:56;;;;;;;3.70;2.10;;;;;;;;;;4974301;28;20477;-61
2021/05/01 04:49:22;;;;;;;6.07;2.40;;;;;;;;;;4989460;28;20026;-61
2021/05/01 04:51:48;;;;;;;5.82;2.38;;;;;;;;;;4990438;28;20390;-61
2021/05/01 04:54:14;;;;;;;6.22;2.65;;;;;;;;;;4991275;28;20061;-62
2021/05/01 04:56:40;;;;;;;3.97;2.55;;;;;;;;;;4989052;28;20072;-61
2021/05/01 04:59:06;;;;;;;5.88;2.92;;;;;;;;;;4988903;28;20034;-61
2021/05/01 05:01:35;;;;;;;4.65;2.50;;;;;;;;;;4989115;28;20026;-61
2021/05/01 05:04:02;;;;;;;6.20;2.60;;;;;;;;;;4989117;28;20379;-61
2021/05/01 05:06:28;;;;;;;5.47;2.58;;;;;;;;;;4991998;28;20022;-62
2021/05/01 05:08:55;;;;;;;6.70;2.80;;;;;;;;;;4989599;28;20109;-61
2021/05/01 05:11:21;;;;;;;5.28;3.40;;;;;;;;;;4987875;28;20383;-61
2021/05/01 05:13:47;;;;;;;6.53;3.70;;;;;;;;;;4989228;28;20130;-61
2021/05/01 05:16:13;;;;;;;4.93;2.72;;;;;;;;;;4989370;28;20443;-61
2021/05/01 05:18:39;;;;;;;4.70;2.95;;;;;;;;;;4990919;28;20038;-62
2021/05/01 05:21:05;;;;;;;4.38;2.58;;;;;;;;;;4991304;28;20027;-62
2021/05/01 05:23:31;;;;;;;5.07;3.17;;;;;;;;;;4992148;28;20038;-61
2021/05/01 05:25:57;;;;;;;4.20;2.55;;;;;;;;;;4992829;28;20022;-61
2021/05/01 05:28:23;;;;;;;6.07;2.88;;;;;;;;;;4992993;28;20101;-61
2021/05/01 05:30:49;;;;;;;4.88;2.58;;;;;;;;;;4976470;28;20030;-61
2021/05/01 05:33:15;;;;;;;4.07;2.50;;;;;;;;;;4994977;28;20053;-62
2021/05/01 05:35:41;;;;;;;5.18;3.10;;;;;;;;;;4992834;28;20093;-62
2021/05/01 05:38:07;;;;;;;4.03;2.90;;;;;;;;;;4992645;28;20427;-61
2021/05/01 05:40:34;;;;;;;4.18;2.90;;;;;;;;;;4992753;28;20034;-60
2021/05/01 05:43:01;;;;;;;4.72;2.85;;;;;;;;;;4992463;28;20023;-61
2021/05/01 05:45:30;;;;;;;5.32;2.63;;;;;;;;;;4995701;28;20034;-62
2021/05/01 05:47:56;;;;;;;5.63;2.97;;;;;;;;;;4993637;28;20019;-60
2021/05/01 05:50:22;;;;;;;8.95;3.55;;;;;;;;;;4992619;28;20034;-60
2021/05/01 05:52:48;;;;;;;5.85;2.97;;;;;;;;;;4991943;28;20038;-62
2021/05/01 05:55:15;;;;;;;7.30;3.55;;;;;;;;;;4992610;28;20027;-61
2021/05/01 05:57:41;;;;;;;7.05;2.85;;;;;;;;;;4994433;28;20025;-60
2021/05/01 06:00:08;;;;;;;5.88;3.10;;;;;;;;;;4993425;28;20113;-60
2021/05/01 06:02:34;;;;;;;6.13;3.65;;;;;;;;;;4991746;28;20062;-60
2021/05/01 06:05:07;;;;;;;3.90;2.55;;;;;;;;;;4991974;28;20433;-61
2021/05/01 06:07:37;;;;;;;5.65;2.65;;;;;;;;;;4991483;28;20030;-61
2021/05/01 06:10:05;;;;;;;4.00;2.60;;;;;;;;;;4992135;28;20034;-61
2021/05/01 06:12:32;;;;;;;5.50;2.67;;;;;;;;;;4994641;28;20023;-62
2021/05/01 06:15:01;;;;;;;6.40;3.00;;;;;;;;;;4994656;28;20026;-61
2021/05/01 06:17:27;;;;;;;3.88;2.50;;;;;;;;;;4991582;28;20475;-60
2021/05/01 06:19:54;;;;;;;4.10;2.63;;;;;;;;;;4991540;28;20117;-60
2021/05/01 06:22:20;;;;;;;4.50;2.50;;;;;;;;;;4977070;28;20086;-61
2021/05/01 06:24:47;;;;;;;8.07;2.72;;;;;;;;;;4993044;28;20054;-60
2021/05/01 06:27:17;;;;;;;4.00;2.70;;;;;;;;;;4993796;28;20080;-63
2021/05/01 06:29:44;;;;;;;4.50;3.00;;;;;;;;;;4991776;28;20482;-60
2021/05/01 06:32:14;;;;;;;5.53;2.78;;;;;;;;;;4991436;28;20050;-60
2021/05/01 06:34:44;;;;;;;5.88;2.92;;;;;;;;;;4991519;28;20379;-60
2021/05/01 06:37:13;;;;;;;5.97;2.72;;;;;;;;;;4991372;28;20471;-61
2021/05/01 06:39:39;;;;;;;6.40;2.78;;;;;;;;;;4993755;28;20113;-61
2021/05/01 06:42:11;;;;;;;4.43;2.80;;;;;;;;;;4992615;28;20018;-60
2021/05/01 06:44:50;;;;;;;3.65;2.33;;;;;;;;;;4991243;28;20034;-61
2021/05/01 06:47:17;;;;;;;5.05;2.50;;;;;;;;;;4991116;28;20505;-60
2021/05/01 06:49:46;;;;;;;4.00;2.47;;;;;;;;;;4991453;28;20474;-60
2021/05/01 06:52:13;;;;;;;3.90;2.70;;;;;;;;;;4991383;28;20027;-61
2021/05/01 06:54:39;;;;;;;4.05;2.63;;;;;;;;;;4992997;28;20060;-60
2021/05/01 06:57:06;;;;;;;5.00;2.83;;;;;;;;;;4992780;28;20050;-61
2021/05/01 06:59:31;;;;;;;6.68;2.90;;;;;;;;;;4990877;28;20039;-61
2021/05/01 07:01:58;;;;;;;5.25;3.05;;;;;;;;;;4991238;28;20023;-61
2021/05/01 07:04:24;;;;;;;5.25;2.63;;;;;;;;;;4991320;28;20034;-61
2021/05/01 07:06:50;;;;;;;3.58;1.75;;;;;;;;;;4991502;28;20390;-61
2021/05/01 07:09:16;;;;;;;3.15;1.70;;;;;;;;;;4993552;28;20031;-61
2021/05/01 07:11:42;;;;;;;2.42;1.60;;;;;;;;;;4990693;28;20042;-61
2021/05/01 07:14:10;;;;;;;2.85;1.65;;;;;;;;;;4991042;28;20030;-61
2021/05/01 07:16:36;;;;;;;2.10;1.50;;;;;;;;;;4990868;28;20477;-61
2021/05/01 07:19:02;;;;;;;3.88;1.85;;;;;;;;;;4991996;28;20130;-61
2021/05/01 07:21:28;;;;;;;3.55;1.90;;;;;;;;;;4990460;28;20038;-61
2021/05/01 07:23:54;;;;;;;2.83;1.92;;;;;;;;;;4992795;28;20092;-61
2021/05/01 07:26:22;;;;;;;2.95;2.03;;;;;;;;;;4994270;28;20479;-61
2021/05/01 07:28:50;;;;;;;4.25;2.30;;;;;;;;;;4984189;28;20061;-61
2021/05/01 07:31:19;;;;;;;3.75;2.05;;;;;;;;;;4988709;28;20030;-61
2021/05/01 07:33:47;;;;;;;4.68;2.03;;;;;;;;;;4990182;28;20038;-61
2021/05/01 07:36:16;;;;;;;3.10;2.05;;;;;;;;;;4991749;28;20037;-61
2021/05/01 07:38:44;;;;;;;2.63;1.60;;;;;;;;;;4989170;28;20053;-61
2021/05/01 07:41:12;;;;;;;4.53;2.53;;;;;;;;;;4989153;28;20019;-61
2021/05/01 07:43:39;;;;;;;7.00;2.47;;;;;;;;;;4988930;28;20478;-61
2021/05/01 07:46:06;;;;;;;2.95;1.92;;;;;;;;;;4989145;28;20041;-61
2021/05/01 07:48:33;;;;;;;4.35;2.08;;;;;;;;;;4989554;28;20023;-61
2021/05/01 07:50:59;;;;;;;3.20;1.17;;;;;;;;;;4990040;28;20027;-61
2021/05/01 07:53:26;;;;;;;3.15;1.45;;;;;;;;;;4990774;28;20038;-61
2021/05/01 07:55:52;;;;;;;1.75;1.23;;;;;;;;;;4989037;28;20026;-61
2021/05/01 07:58:18;;;;;;;3.63;1.20;;;;;;;;;;4982678;28;20027;-61
2021/05/01 08:00:46;;;;;;;2.60;1.60;;;;;;;;;;4990451;28;20269;-61
2021/05/01 08:03:12;;;;;;;2.08;1.40;;;;;;;;;;4990077;28;20049;-61
2021/05/01 08:05:39;;;;;;;4.68;1.70;;;;;;;;;;4988945;28;20489;-61
2021/05/01 08:08:05;;;;;;;2.67;1.25;;;;;;;;;;4982287;28;20489;-60
2021/05/01 08:10:31;;;;;;;1.63;0.98;;;;;;;;;;4984109;28;20034;-60
2021/05/01 08:12:57;;;;;;;2.30;0.98;;;;;;;;;;4987484;28;20566;-60
2021/05/01 08:15:25;;;;;;;2.10;1.10;;;;;;;;;;4991890;28;20105;-60
2021/05/01 08:17:51;;;;;;;2.17;1.20;;;;;;;;;;4988611;28;20038;-61
2021/05/01 08:20:17;;;;;;;6.00;1.73;;;;;;;;;;4984364;28;20030;-60
2021/05/01 08:22:43;;;;;;;2.78;1.80;;;;;;;;;;4992191;28;20511;-60
2021/05/01 08:25:11;;;;;;;3.10;1.90;;;;;;;;;;4990503;28;20050;-60
2021/05/01 08:27:38;;;;;;;4.60;1.80;;;;;;;;;;4988057;28;20126;-60
2021/05/01 08:30:08;;;;;;;3.80;1.98;;;;;;;;;;4987502;28;20491;-60
2021/05/01 08:32:34;;;;;;;3.78;1.60;;;;;;;;;;4987801;28;20114;-61
2021/05/01 08:34:59;;;;;;;5.10;1.80;;;;;;;;;;4988378;28;20534;-61
2021/05/01 08:37:25;;;;;;;4.82;2.15;;;;;;;;;;4986724;28;20022;-61
2021/05/01 08:39:51;;;;;;;3.70;2.00;;;;;;;;;;4985962;28;20038;-61
2021/05/01 08:42:18;;;;;;;1.05;0.93;;;;;;;;;;4972201;28;20232;-61
2021/05/01 08:44:44;;;;;;;2.55;0.88;;;;;;;;;;4986200;28;20030;-60
2021/05/01 08:47:10;;;;;;;0.77;0.60;;;;;;;;;;4987496;28;20394;-61
2021/05/01 08:49:36;;;;;;;2.83;1.27;;;;;;;;;;4987228;28;20033;-61
2021/05/01 08:52:03;;;;;;;4.00;1.08;;;;;;;;;;4987548;28;20378;-60
2021/05/01 08:54:29;;;;;;;2.65;1.17;;;;;;;;;;4990875;28;20364;-62
2021/05/01 08:56:55;;;;;;;2.22;1.50;;;;;;;;;;4987926;28;20041;-61
2021/05/01 08:59:21;;;;;;;2.78;1.48;;;;;;;;;;4988902;28;20165;-62
2021/05/01 09:01:51;;;;;;;1.80;1.35;;;;;;;;;;4988515;28;20026;-61
2021/05/01 09:04:17;;;;;;;1.88;1.63;;;;;;;;;;4988777;28;20045;-62
2021/05/01 09:06:43;;;;;;;4.07;1.73;;;;;;;;;;4990186;28;20097;-63
2021/05/01 09:09:11;;;;;;;4.75;2.45;;;;;;;;;;4993650;28;20584;-61
2021/05/01 09:11:37;;;;;;;4.77;2.33;;;;;;;;;;4988772;28;20470;-61
2021/05/01 09:14:21;;;;;;;5.50;2.45;;;;;;;;;;4988172;28;20632;-61
2021/05/01 09:17:04;;;;;;;4.10;2.20;;;;;;;;;;4990136;28;20067;-61
2021/05/01 09:19:30;;;;;;;4.28;1.75;;;;;;;;;;4990795;28;20057;-61
2021/05/01 09:22:00;;;;;;;4.22;2.13;;;;;;;;;;4986499;28;20030;-61
2021/05/01 09:24:26;;;;;;;4.22;1.73;;;;;;;;;;4990990;28;20152;-61
2021/05/01 09:26:52;;;;;;;2.17;1.50;;;;;;;;;;4988399;28;20026;-61
2021/05/01 09:29:28;;;;;;;4.05;1.40;;;;;;;;;;4987929;28;20477;-60
2021/05/01 09:31:54;;;;;;;5.07;1.90;;;;;;;;;;4981541;28;20097;-60
2021/05/01 09:34:33;;;;;;;2.92;1.75;;;;;;;;;;4978906;28;20018;-60
2021/05/01 09:36:59;;;;;;;3.13;1.95;;;;;;;;;;4997247;28;20077;-60
2021/05/01 09:39:28;;;;;;;3.55;2.10;;;;;;;;;;4991131;28;20101;-62
2021/05/01 09:41:55;;;;;;;4.57;2.00;;;;;;;;;;4987172;28;20045;-63
2021/05/01 09:44:23;;;;;;;4.82;1.65;;;;;;;;;;4977749;28;20077;-63
2021/05/01 09:46:50;;;;;;;4.25;2.08;;;;;;;;;;4987740;28;20042;-63
2021/05/01 09:49:18;;;;;;;3.42;1.30;;;;;;;;;;4987374;28;20039;-63
2021/05/01 09:51:45;;;;;;;5.20;2.08;;;;;;;;;;4989213;28;20019;-62
2021/05/01 09:54:12;;;;;;;2.97;2.28;;;;;;;;;;4990168;28;20502;-62
2021/05/01 09:56:39;;;;;;;5.22;2.50;;;;;;;;;;4988050;28;20069;-62
2021/05/01 09:59:06;;;;;;;4.47;2.73;;;;;;;;;;4989258;28;20038;-61
2021/05/01 10:01:32;;;;;;;7.35;2.70;;;;;;;;;;4987817;28;20271;-61
2021/05/01 10:04:18;;;;;;;6.45;5.78;;;;;;;;;;4989686;28;20034;-61
2021/05/01 10:06:49;;;;;;;9.40;7.75;;;;;;;;;;4986141;28;20034;-61
2021/05/01 10:09:22;;;;;;;4.97;3.97;;;;;;;;;;4996407;28;20117;-61
2021/05/01 10:11:48;;;;;;;3.88;2.67;;;;;;;;;;5002863;28;20421;-61
2021/05/01 10:14:16;;;;;;;2.83;1.80;;;;;;;;;;4989087;28;20105;-62
2021/05/01 10:16:52;;;;;;;4.20;2.67;;;;;;;;;;4988417;28;20080;-62
2021/05/01 10:19:19;;;;;;;3.70;1.70;;;;;;;;;;4992532;28;20291;-61
2021/05/01 10:21:47;;;;;;;3.60;2.70;;;;;;;;;;4992784;28;20097;-61
2021/05/01 10:24:13;;;;;;;5.40;3.40;;;;;;;;;;4988200;28;20050;-61
2021/05/01 10:26:42;;;;;;;4.03;2.83;;;;;;;;;;4989933;28;20045;-61
2021/05/01 10:29:09;;;;;;;1.80;1.52;;;;;;;;;;4992186;28;20022;-62
2021/05/01 10:31:45;;;;;;;1.08;0.77;;;;;;;;;;4995050;28;20034;-62
2021/05/01 10:34:12;;;;;;;1.40;1.10;;;;;;;;;;4992482;28;20031;-62
2021/05/01 10:36:38;;;;;;;1.85;1.10;;;;;;;;;;5007003;28;20030;-61
2021/05/01 10:39:06;;;;;;;0.80;0.60;;;;;;;;;;4995847;28;20549;-61
2021/05/01 10:41:32;;;;;;;1.10;0.80;;;;;;;;;;5000121;28;20067;-61
2021/05/01 10:43:59;;;;;;;1.17;0.75;;;;;;;;;;5002171;28;20084;-61
2021/05/01 10:46:28;;;;;;;1.45;1.23;;;;;;;;;;4994649;28;20045;-61
2021/05/01 10:48:55;;;;;;;2.35;1.60;;;;;;;;;;4974659;28;20410;-60
2021/05/01 10:51:22;;;;;;;3.75;2.78;;;;;;;;;;4991793;28;20030;-61
2021/05/01 10:54:05;;;;;;;3.00;2.50;;;;;;;;;;4990281;28;20042;-61
2021/05/01 10:56:32;;;;;;;2.17;1.60;;;;;;;;;;4990546;28;20057;-61
2021/05/01 10:58:58;;;;;;;1.85;1.30;;;;;;;;;;4989775;28;20135;-61
2021/05/01 11:01:27;;;;;;;2.08;1.30;;;;;;;;;;4990012;28;20494;-61
2021/05/01 11:03:55;;;;;;;1.40;1.30;;;;;;;;;;4990570;28;20466;-61
2021/05/01 11:06:22;;;;;;;3.35;0.95;;;;;;;;;;4993129;28;20030;-61
2021/05/01 11:08:51;;;;;;;2.83;1.10;;;;;;;;;;4990025;28;20026;-61
2021/05/01 11:11:18;;;;;;;3.42;1.42;;;;;;;;;;4989539;28;20066;-62
2021/05/01 11:13:48;;;;;;;3.15;1.85;;;;;;;;;;4975487;28;20026;-62
2021/05/01 11:16:16;;;;;;;3.42;1.60;;;;;;;;;;4990078;28;20037;-61
2021/05/01 11:18:44;;;;;;;7.60;2.95;;;;;;;;;;4987559;28;20053;-60
2021/05/01 11:21:11;;;;;;;2.42;1.10;;;;;;;;;;4991769;28;20034;-61
2021/05/01 11:23:38;;;;;;;2.05;1.10;;;;;;;;;;4990076;28;20046;-61
2021/05/01 11:26:08;;;;;;;3.53;0.82;;;;;;;;;;4989591;28;20069;-63
2021/05/01 11:28:36;;;;;;;3.28;0.88;;;;;;;;;;4988883;28;20125;-61
2021/05/01 11:31:02;;;;;;;1.55;0.95;;;;;;;;;;4991398;28;20410;-64
2021/05/01 11:33:28;;;;;;;3.88;2.45;;;;;;;;;;4990831;28;20019;-64
2021/05/01 11:35:54;;;;;;;18.98;17.17;;;;;;;;;;4990879;28;20037;-63
2021/05/01 11:38:24;;;;;;;8.07;5.53;;;;;;;;;;4987174;28;20033;-63
2021/05/01 11:40:52;;;;;;;12.02;9.05;;;;;;;;;;4989076;28;20437;-61
2021/05/01 11:43:19;;;;;;;10.02;8.07;;;;;;;;;;5003361;28;20022;-61
2021/05/01 11:46:10;;;;;;;6.80;5.13;;;;;;;;;;4992691;28;20035;-60
2021/05/01 11:48:39;;;;;;;2.90;1.27;;;;;;;;;;5003084;28;20018;-60
2021/05/01 11:51:06;;;;;;;1.52;0.80;;;;;;;;;;4993602;28;20486;-62
2021/05/01 11:53:32;;;;;;;2.07;1.17;;;;;;;;;;4993838;28;20117;-61
2021/05/01 11:56:01;;;;;;;4.40;2.40;;;;;;;;;;4993310;28;20509;-60
2021/05/01 11:58:32;;;;;;;1.88;1.23;;;;;;;;;;4991029;28;20084;-61
2021/05/01 12:01:17;;;;;;;1.52;1.02;;;;;;;;;;4976722;28;20022;-61
2021/05/01 12:03:53;;;;;;;2.20;1.30;;;;;;;;;;4992148;28;20508;-62
2021/05/01 12:06:21;;;;;;;1.48;1.10;;;;;;;;;;4996972;28;20034;-61
2021/05/01 12:08:48;;;;;;;2.60;1.65;;;;;;;;;;4992205;28;20113;-62
2021/05/01 12:11:16;;;;;;;2.72;0.45;;;;;;;;;;4990119;28;20033;-61
2021/05/01 12:13:46;;;;;;;1.20;0.40;;;;;;;;;;5002300;28;20108;-62
2021/05/01 12:16:21;;;;;;;0.30;0.30;;;;;;;;;;4989928;28;20505;-61
2021/05/01 12:18:49;;;;;;;5.38;3.40;;;;;;;;;;4991131;28;20032;-61
2021/05/01 12:21:35;;;;;;;5.72;2.80;;;;;;;;;;4995275;28;20038;-62
2021/05/01 12:24:01;;;;;;;4.57;2.80;;;;;;;;;;4997080;28;20057;-62
2021/05/01 12:26:36;;;;;;;3.65;2.38;;;;;;;;;;4996458;28;20027;-62
2021/05/01 12:29:18;;;;;;;5.07;2.63;;;;;;;;;;4993036;28;20026;-62
2021/05/01 12:31:47;;;;;;;4.65;1.85;;;;;;;;;;4987632;28;20030;-62
2021/05/01 12:34:13;;;;;;;4.35;2.30;;;;;;;;;;4988946;28;20022;-62
2021/05/01 12:36:40;;;;;;;4.22;2.83;;;;;;;;;;5003412;28;20049;-62
2021/05/01 12:39:06;;;;;;;5.28;3.25;;;;;;;;;;4989603;28;20031;-62
2021/05/01 12:41:34;;;;;;;4.93;2.05;;;;;;;;;;4988066;28;20022;-62
2021/05/01 12:44:00;;;;;;;2.50;1.50;;;;;;;;;;4987703;28;20473;-62
2021/05/01 12:46:27;;;;;;;2.42;1.65;;;;;;;;;;4988810;28;20019;-62
2021/05/01 12:48:53;;;;;;;2.65;1.30;;;;;;;;;;4988993;28;20030;-61
2021/05/01 12:51:39;;;;;;;2.85;1.50;;;;;;;;;;4990694;28;20033;-62
2021/05/01 12:54:28;;;;;;;3.40;1.10;;;;;;;;;;4991581;28;20113;-62
2021/05/01 12:56:56;;;;;;;4.25;1.50;;;;;;;;;;4989614;28;20034;-62
2021/05/01 12:59:22;;;;;;;2.90;1.98;;;;;;;;;;4988745;28;20038;-62
2021/05/01 13:01:48;;;;;;;2.53;1.50;;;;;;;;;;4987249;28;20087;-62
2021/05/01 13:04:16;;;;;;;3.72;1.85;;;;;;;;;;4988773;28;20066;-63
2021/05/01 13:06:43;;;;;;;3.08;1.80;;;;;;;;;;4990390;28;20538;-63
2021/05/01 13:09:10;;;;;;;2.58;1.85;;;;;;;;;;4989915;28;20053;-63
2021/05/01 13:11:36;;;;;;;4.07;1.90;;;;;;;;;;4987749;28;20034;-62
2021/05/01 13:14:19;;;;;;;4.55;2.85;;;;;;;;;;4987768;28;20101;-63
2021/05/01 13:17:02;;;;;;;4.25;2.45;;;;;;;;;;4988397;28;20028;-62
2021/05/01 13:19:36;;;;;;;4.40;2.55;;;;;;;;;;4988394;28;20038;-63
2021/05/01 13:22:06;;;;;;;3.70;1.67;;;;;;;;;;4982547;28;20042;-63
2021/05/01 13:24:33;;;;;;;3.47;1.77;;;;;;;;;;4990227;28;20417;-62
2021/05/01 13:27:00;;;;;;;2.03;1.38;;;;;;;;;;4988582;28;20362;-62
2021/05/01 13:29:28;;;;;;;3.10;1.52;;;;;;;;;;4987708;28;20478;-62
2021/05/01 13:31:54;;;;;;;2.38;1.30;;;;;;;;;;4991023;28;20026;-62
2021/05/01 13:34:20;;;;;;;4.47;2.00;;;;;;;;;;4993154;28;20470;-62
2021/05/01 13:36:46;;;;;;;5.18;3.10;;;;;;;;;;4981988;28;20034;-62
2021/05/01 13:39:18;;;;;;;6.88;3.00;;;;;;;;;;4971635;28;20094;-62
2021/05/01 13:42:03;;;;;;;5.45;2.55;;;;;;;;;;4988025;28;20034;-62
2021/05/01 13:44:38;;;;;;;6.70;3.30;;;;;;;;;;4991831;28;20037;-62
2021/05/01 13:47:05;;;;;;;4.38;1.90;;;;;;;;;;4990220;28;20034;-64
2021/05/01 13:49:31;;;;;;;4.53;1.40;;;;;;;;;;4991702;28;20080;-66
2021/05/01 13:51:57;;;;;;;3.97;1.58;;;;;;;;;;4990967;28;20035;-65
2021/05/01 13:54:26;;;;;;;3.00;1.98;;;;;;;;;;4992947;28;20061;-65
2021/05/01 13:56:52;;;;;;;2.20;1.33;;;;;;;;;;4990990;28;20117;-63
2021/05/01 13:59:28;;;;;;;2.50;1.00;;;;;;;;;;4993609;28;20043;-65
2021/05/01 14:01:54;;;;;;;3.58;1.05;;;;;;;;;;4991013;28;20086;-65
2021/05/01 14:04:34;;;;;;;2.30;1.20;;;;;;;;;;4991049;28;20030;-65
2021/05/01 14:07:01;;;;;;;3.20;1.40;;;;;;;;;;4976907;28;20027;-66
2021/05/01 14:09:28;;;;;;;1.15;0.90;;;;;;;;;;4994003;28;20033;-66
2021/05/01 14:11:54;;;;;;;2.47;1.30;;;;;;;;;;4992721;28;20057;-64
2021/05/01 14:14:24;;;;;;;1.98;0.80;;;;;;;;;;4990818;28;20073;-62
2021/05/01 14:17:00;;;;;;;2.00;0.80;;;;;;;;;;4991563;28;20038;-63
2021/05/01 14:19:26;;;;;;;1.25;0.60;;;;;;;;;;4976342;28;20457;-63
2021/05/01 14:21:53;;;;;;;2.55;0.55;;;;;;;;;;4990796;28;20086;-63
2021/05/01 14:24:19;;;;;;;1.35;0.50;;;;;;;;;;4993712;28;20438;-63
2021/05/01 14:27:03;;;;;;;1.27;1.00;;;;;;;;;;4976054;28;20027;-63
2021/05/01 14:29:30;;;;;;;1.92;0.85;;;;;;;;;;4990865;28;20054;-63
2021/05/01 14:32:15;;;;;;;2.90;0.88;;;;;;;;;;4990609;28;20029;-63
2021/05/01 14:34:51;;;;;;;0.57;0.47;;;;;;;;;;4990559;28;20022;-63
2021/05/01 14:37:17;;;;;;;1.00;0.60;;;;;;;;;;5003378;28;20034;-62
2021/05/01 14:39:43;;;;;;;1.02;0.52;;;;;;;;;;4992271;28;20193;-64
2021/05/01 14:42:13;;;;;;;0.73;0.70;;;;;;;;;;4992314;28;20092;-63
2021/05/01 14:44:39;;;;;;;2.13;0.60;;;;;;;;;;4991003;28;20548;-62